createdAt,value
2019-03-23T00:01:13.037Z,9.50
2019-03-23T00:03:43.512Z,9.50
2019-03-23T00:06:13.981Z,9.50
2019-03-23T00:08:44.594Z,9.50
2019-03-23T00:11:15.074Z,9.30
2019-03-23T00:13:45.554Z,9.30
2019-03-23T00:16:16.002Z,9.40
2019-03-23T00:18:46.425Z,9.40
2019-03-23T00:21:16.877Z,9.40
2019-03-23T00:23:47.346Z,9.40
2019-03-23T00:26:17.778Z,9.50
2019-03-23T00:28:48.241Z,9.40
2019-03-23T00:31:18.739Z,9.30
2019-03-23T00:33:49.197Z,9.20
2019-03-23T00:36:19.659Z,9.30
2019-03-23T00:38:50.095Z,9.40
2019-03-23T00:41:20.644Z,9.10
2019-03-23T00:43:51.105Z,9.00
2019-03-23T00:46:21.633Z,9.00
2019-03-23T00:48:52.535Z,9.10
2019-03-23T00:51:23.160Z,9.10
2019-03-23T00:53:53.605Z,9.20
2019-03-23T00:56:24.104Z,9.20
2019-03-23T00:58:54.621Z,9.10
2019-03-23T01:01:25.121Z,9.10
2019-03-23T01:03:55.650Z,9.00
2019-03-23T01:06:26.162Z,9.10
2019-03-23T01:08:56.608Z,9.00
2019-03-23T01:11:27.147Z,9.10
2019-03-23T01:13:57.575Z,9.00
2019-03-23T01:16:28.114Z,8.90
2019-03-23T01:18:58.543Z,9.00
2019-03-23T01:21:29.082Z,8.90
2019-03-23T01:23:59.605Z,8.80
2019-03-23T01:26:30.146Z,8.90
2019-03-23T01:31:30.106Z,9.00
2019-03-23T01:34:00.559Z,8.90
2019-03-23T01:36:31.093Z,8.90
2019-03-23T01:39:01.508Z,9.00
2019-03-23T01:41:31.977Z,9.10
2019-03-23T01:44:02.417Z,9.20
2019-03-23T01:46:32.889Z,9.20
2019-03-23T01:49:03.346Z,9.30
2019-03-23T01:54:02.443Z,9.00
2019-03-23T01:56:32.966Z,9.10
2019-03-23T01:59:03.644Z,9.10
2019-03-23T02:01:34.254Z,9.10
2019-03-23T02:04:04.699Z,9.10
2019-03-23T02:06:35.194Z,8.90
2019-03-23T02:09:07.592Z,9.00
2019-03-23T02:11:38.063Z,9.10
2019-03-23T02:14:08.521Z,9.00
2019-03-23T02:16:38.960Z,8.80
2019-03-23T02:19:09.394Z,8.70
2019-03-23T02:21:39.911Z,8.90
2019-03-23T02:24:10.356Z,8.80
2019-03-23T02:26:40.831Z,8.80
2019-03-23T02:29:11.259Z,8.80
2019-03-23T02:31:41.765Z,8.90
2019-03-23T02:34:12.279Z,9.00
2019-03-23T02:36:42.759Z,9.00
2019-03-23T02:39:13.229Z,8.90
2019-03-23T02:41:43.709Z,8.90
2019-03-23T02:44:14.131Z,8.80
2019-03-23T02:46:44.602Z,8.80
2019-03-23T02:49:15.089Z,8.70
2019-03-23T02:51:45.564Z,8.80
2019-03-23T02:54:16.012Z,8.70
2019-03-23T02:56:46.504Z,8.80
2019-03-23T02:59:16.939Z,8.70
2019-03-23T03:01:47.415Z,8.70
2019-03-23T03:04:17.955Z,8.70
2019-03-23T03:06:48.418Z,8.80
2019-03-23T03:09:18.879Z,8.80
2019-03-23T03:11:49.442Z,8.50
2019-03-23T03:14:20.099Z,8.50
2019-03-23T03:16:50.575Z,8.50
2019-03-23T03:19:21.009Z,8.30
2019-03-23T03:21:51.496Z,8.10
2019-03-23T03:24:21.938Z,8.00
2019-03-23T03:26:52.400Z,7.90
2019-03-23T03:29:22.921Z,8.00
2019-03-23T03:31:53.395Z,8.00
2019-03-23T03:34:23.968Z,8.00
2019-03-23T03:36:54.521Z,8.10
2019-03-23T03:39:24.968Z,8.10
2019-03-23T03:41:55.520Z,8.20
2019-03-23T03:44:26.311Z,8.00
2019-03-23T03:46:56.975Z,8.00
2019-03-23T03:49:27.420Z,8.00
2019-03-23T03:51:57.890Z,8.10
2019-03-23T03:54:28.335Z,8.10
2019-03-23T03:56:58.956Z,8.00
2019-03-23T03:59:29.413Z,8.00
2019-03-23T04:01:59.936Z,8.10
2019-03-23T04:04:30.415Z,7.90
2019-03-23T04:07:00.923Z,7.90
2019-03-23T04:09:31.353Z,8.00
2019-03-23T04:12:01.924Z,7.80
2019-03-23T04:14:32.350Z,7.80
2019-03-23T04:17:02.865Z,7.70
2019-03-23T04:19:33.302Z,7.60
2019-03-23T04:22:03.980Z,7.60
2019-03-23T04:24:34.541Z,7.70
2019-03-23T04:27:05.619Z,7.70
2019-03-23T04:29:36.059Z,7.60
2019-03-23T04:32:06.530Z,7.70
2019-03-23T04:34:37.060Z,7.50
2019-03-23T04:37:07.612Z,7.50
2019-03-23T04:39:38.110Z,7.40
2019-03-23T04:42:08.647Z,7.40
2019-03-23T04:44:39.074Z,7.40
2019-03-23T04:47:09.550Z,7.20
2019-03-23T04:49:40.086Z,7.20
2019-03-23T04:52:10.574Z,7.10
2019-03-23T04:54:41.171Z,7.10
2019-03-23T04:57:11.747Z,7.20
2019-03-23T04:59:42.254Z,7.30
2019-03-23T05:02:12.714Z,7.20
2019-03-23T05:04:43.149Z,7.20
2019-03-23T05:07:13.606Z,7.30
2019-03-23T05:09:44.047Z,7.30
2019-03-23T05:12:14.486Z,7.20
2019-03-23T05:14:44.922Z,7.00
2019-03-23T05:17:15.402Z,6.90
2019-03-23T05:19:45.940Z,6.90
2019-03-23T05:22:16.410Z,6.90
2019-03-23T05:24:46.934Z,6.90
2019-03-23T05:27:17.514Z,7.00
2019-03-23T05:29:47.955Z,6.40
2019-03-23T05:32:18.442Z,6.30
2019-03-23T05:34:48.885Z,6.40
2019-03-23T05:37:19.372Z,6.60
2019-03-23T05:39:49.809Z,6.80
2019-03-23T05:42:20.307Z,7.00
2019-03-23T05:44:50.749Z,7.10
2019-03-23T05:47:21.300Z,7.20
2019-03-23T05:49:51.738Z,7.80
2019-03-23T05:52:22.225Z,8.00
2019-03-23T05:54:52.677Z,8.20
2019-03-23T05:57:23.184Z,8.20
2019-03-23T05:59:53.636Z,8.50
2019-03-23T06:02:24.192Z,8.90
2019-03-23T06:04:54.716Z,9.40
2019-03-23T06:07:25.160Z,9.70
2019-03-23T06:09:55.597Z,10.10
2019-03-23T06:12:26.054Z,10.40
2019-03-23T06:14:56.494Z,10.60
2019-03-23T06:17:26.962Z,10.80
2019-03-23T06:19:57.404Z,11.30
2019-03-23T06:22:27.897Z,11.70
2019-03-23T06:24:58.350Z,12.00
2019-03-23T06:27:28.810Z,12.10
2019-03-23T06:29:59.242Z,12.40
2019-03-23T06:32:29.718Z,12.70
2019-03-23T06:35:00.395Z,13.10
2019-03-23T06:42:30.305Z,13.80
2019-03-23T06:45:00.843Z,13.80
2019-03-23T06:47:31.910Z,14.10
2019-03-23T06:50:02.612Z,14.20
2019-03-23T06:52:34.406Z,14.30
2019-03-23T06:55:05.754Z,13.90
2019-03-23T06:57:36.240Z,13.40
2019-03-23T07:00:07.768Z,12.90
2019-03-23T07:02:38.295Z,12.90
2019-03-23T07:05:09.133Z,13.70
2019-03-23T07:07:39.580Z,14.30
2019-03-23T07:10:11.290Z,15.30
2019-03-23T07:12:41.793Z,16.00
2019-03-23T07:15:19.831Z,16.70
2019-03-23T07:17:44.400Z,17.60
2019-03-23T07:20:14.938Z,17.60
2019-03-23T07:22:45.391Z,18.00
2019-03-23T07:25:15.847Z,18.40
2019-03-23T07:27:46.296Z,18.40
2019-03-23T07:30:16.809Z,19.00
2019-03-23T07:32:47.218Z,19.90
2019-03-23T07:35:17.680Z,20.30
2019-03-23T07:37:48.158Z,20.50
2019-03-23T07:40:18.664Z,21.10
2019-03-23T07:42:49.101Z,21.80
2019-03-23T07:45:19.567Z,22.20
2019-03-23T07:47:50.095Z,22.70
2019-03-23T07:50:21.141Z,22.40
2019-03-23T07:52:51.561Z,22.70
2019-03-23T07:55:22.190Z,23.50
2019-03-23T07:57:52.678Z,24.20
2019-03-23T08:00:23.221Z,25.00
2019-03-23T08:02:53.752Z,24.70
2019-03-23T08:05:24.229Z,24.80
2019-03-23T08:07:54.759Z,24.80
2019-03-23T08:10:30.024Z,24.40
2019-03-23T08:13:00.557Z,24.80
2019-03-23T08:15:31.151Z,24.90
2019-03-23T08:18:01.614Z,24.90
2019-03-23T08:20:32.307Z,24.70
2019-03-23T08:23:02.760Z,23.50
2019-03-23T08:25:33.768Z,21.90
2019-03-23T08:28:04.214Z,20.20
2019-03-23T08:30:34.755Z,18.90
2019-03-23T08:33:05.233Z,18.40
2019-03-23T08:35:35.707Z,17.70
2019-03-23T08:38:06.159Z,17.30
2019-03-23T08:40:36.722Z,16.40
2019-03-23T08:43:07.162Z,15.80
2019-03-23T08:45:38.910Z,15.30
2019-03-23T08:48:09.506Z,14.90
2019-03-23T08:50:40.010Z,14.90
2019-03-23T08:53:10.478Z,14.90
2019-03-23T08:55:40.944Z,14.80
2019-03-23T08:58:11.449Z,14.60
2019-03-23T09:00:41.930Z,14.60
2019-03-23T09:03:12.362Z,14.60
2019-03-23T09:05:42.888Z,14.50
2019-03-23T09:08:13.334Z,13.90
2019-03-23T09:10:43.819Z,13.50
2019-03-23T09:13:14.314Z,13.40
2019-03-23T09:15:44.804Z,13.50
2019-03-23T09:18:15.237Z,13.30
2019-03-23T09:20:45.690Z,13.00
2019-03-23T09:23:16.219Z,13.00
2019-03-23T09:25:46.822Z,12.80
2019-03-23T09:28:17.358Z,12.80
2019-03-23T09:30:47.844Z,12.70
2019-03-23T09:33:18.270Z,12.60
2019-03-23T09:35:48.759Z,12.40
2019-03-23T09:38:19.223Z,12.30
2019-03-23T09:40:49.750Z,12.20
2019-03-23T09:43:20.355Z,12.20
2019-03-23T09:45:50.817Z,12.10
2019-03-23T09:48:21.257Z,12.10
2019-03-23T09:50:51.734Z,12.40
2019-03-23T09:53:22.266Z,12.50
2019-03-23T09:55:52.912Z,12.20
2019-03-23T09:58:23.371Z,12.20
2019-03-23T10:00:53.848Z,11.90
2019-03-23T10:03:24.357Z,12.00
2019-03-23T10:05:54.814Z,11.70
2019-03-23T10:08:25.270Z,11.70
2019-03-23T10:10:55.732Z,11.90
2019-03-23T10:13:26.181Z,11.90
2019-03-23T10:15:56.626Z,12.00
2019-03-23T10:18:27.066Z,11.60
2019-03-23T10:20:57.521Z,11.40
2019-03-23T10:23:27.966Z,11.50
2019-03-23T10:25:58.419Z,11.80
2019-03-23T10:28:28.869Z,11.90
2019-03-23T10:30:59.338Z,11.90
2019-03-23T10:33:29.806Z,11.70
2019-03-23T10:36:00.350Z,11.40
2019-03-23T10:38:30.798Z,11.30
2019-03-23T10:41:01.246Z,11.30
2019-03-23T10:43:31.677Z,11.70
2019-03-23T10:46:02.142Z,11.90
2019-03-23T10:48:32.584Z,12.00
2019-03-23T10:51:03.054Z,12.00
2019-03-23T10:53:33.501Z,11.90
2019-03-23T10:56:03.966Z,12.00
2019-03-23T10:58:34.471Z,12.30
2019-03-23T11:01:05.046Z,12.20
2019-03-23T11:03:35.485Z,12.20
2019-03-23T11:06:05.977Z,12.50
2019-03-23T11:08:36.435Z,12.60
2019-03-23T11:11:06.929Z,12.60
2019-03-23T11:13:37.374Z,12.40
2019-03-23T11:16:07.836Z,12.40
2019-03-23T11:18:38.282Z,12.40
2019-03-23T11:21:08.752Z,12.50
2019-03-23T11:23:39.228Z,12.30
2019-03-23T11:26:09.686Z,12.00
2019-03-23T11:28:40.149Z,12.20
2019-03-23T11:31:10.615Z,12.50
2019-03-23T11:33:41.049Z,12.30
2019-03-23T11:36:11.587Z,12.50
2019-03-23T11:38:42.088Z,12.50
2019-03-23T11:41:12.540Z,12.60
2019-03-23T11:43:42.990Z,12.90
2019-03-23T11:46:13.474Z,12.90
2019-03-23T11:48:43.998Z,12.90
2019-03-23T11:51:14.489Z,13.00
2019-03-23T11:53:44.977Z,13.00
2019-03-23T11:56:15.463Z,13.00
2019-03-23T11:58:45.934Z,13.10
2019-03-23T12:01:16.613Z,13.10
2019-03-23T12:03:47.096Z,13.00
2019-03-23T12:06:17.634Z,13.00
2019-03-23T12:08:48.097Z,12.90
2019-03-23T12:11:18.560Z,12.90
2019-03-23T12:13:48.998Z,12.80
2019-03-23T12:16:19.515Z,12.70
2019-03-23T12:18:50.000Z,12.80
2019-03-23T12:21:20.518Z,12.60
2019-03-23T12:23:50.997Z,12.50
2019-03-23T12:26:21.496Z,12.50
2019-03-23T12:28:51.935Z,12.40
2019-03-23T12:31:22.615Z,12.60
2019-03-23T12:33:53.049Z,12.60
2019-03-23T12:36:23.708Z,12.70
2019-03-23T12:38:54.230Z,12.80
2019-03-23T12:41:24.718Z,12.90
2019-03-23T12:43:55.165Z,12.90
2019-03-23T12:46:25.788Z,12.90
2019-03-23T12:48:56.302Z,12.80
2019-03-23T12:51:26.759Z,12.90
2019-03-23T12:53:57.230Z,13.00
2019-03-23T12:56:27.710Z,13.00
2019-03-23T12:58:58.207Z,13.20
2019-03-23T13:01:28.639Z,13.30
2019-03-23T13:03:59.099Z,13.50
2019-03-23T13:06:29.574Z,13.60
2019-03-23T13:09:00.017Z,13.50
2019-03-23T13:11:34.879Z,13.50
2019-03-23T13:14:02.538Z,13.80
2019-03-23T13:16:32.974Z,13.90
2019-03-23T13:19:03.430Z,14.10
2019-03-23T13:21:33.907Z,14.10
2019-03-23T13:24:04.344Z,14.20
2019-03-23T13:26:34.787Z,14.20
2019-03-23T13:29:05.270Z,14.10
2019-03-23T13:31:35.706Z,14.20
2019-03-23T13:34:06.159Z,14.40
2019-03-23T13:36:36.600Z,14.40
2019-03-23T13:39:07.654Z,14.30
2019-03-23T13:41:47.567Z,14.40
2019-03-23T13:44:18.553Z,14.60
2019-03-23T13:46:49.158Z,14.50
2019-03-23T13:49:19.622Z,14.50
2019-03-23T13:51:50.068Z,14.50
2019-03-23T13:54:20.518Z,14.50
2019-03-23T13:56:51.006Z,14.60
2019-03-23T13:59:25.414Z,14.30
2019-03-23T14:01:55.783Z,14.30
2019-03-23T14:04:26.238Z,14.20
2019-03-23T14:06:56.699Z,14.20
2019-03-23T14:09:27.258Z,14.20
2019-03-23T14:11:57.766Z,14.10
2019-03-23T14:14:28.252Z,14.20
2019-03-23T14:16:58.691Z,14.10
2019-03-23T14:19:29.140Z,14.10
2019-03-23T14:21:59.609Z,14.10
2019-03-23T14:24:30.185Z,13.80
2019-03-23T14:27:01.134Z,13.90
2019-03-23T14:29:31.606Z,14.10
2019-03-23T14:32:02.066Z,13.90
2019-03-23T14:34:32.636Z,13.90
2019-03-23T14:37:03.160Z,14.00
2019-03-23T14:39:36.700Z,14.00
2019-03-23T14:42:07.433Z,14.00
2019-03-23T14:44:37.962Z,14.00
2019-03-23T14:47:08.436Z,13.60
2019-03-23T14:49:38.898Z,13.70
2019-03-23T14:52:09.474Z,13.80
2019-03-23T14:54:39.941Z,13.90
2019-03-23T14:57:10.440Z,13.90
2019-03-23T14:59:40.966Z,13.80
2019-03-23T15:02:11.518Z,14.00
2019-03-23T15:04:42.030Z,14.00
2019-03-23T15:07:12.518Z,14.00
2019-03-23T15:09:43.110Z,14.10
2019-03-23T15:12:15.324Z,14.10
2019-03-23T15:14:45.735Z,14.30
2019-03-23T15:17:16.190Z,14.30
2019-03-23T15:19:46.718Z,14.30
2019-03-23T15:22:17.191Z,14.30
2019-03-23T15:24:47.665Z,14.30
2019-03-23T15:27:18.110Z,14.40
2019-03-23T15:29:48.581Z,14.30
2019-03-23T15:32:19.519Z,14.40
2019-03-23T15:34:50.180Z,14.40
2019-03-23T15:37:20.639Z,14.40
2019-03-23T15:39:51.088Z,14.40
2019-03-23T15:42:24.914Z,14.50
2019-03-23T15:44:54.588Z,14.60
2019-03-23T15:47:25.050Z,14.50
2019-03-23T15:49:55.527Z,14.60
2019-03-23T15:52:26.017Z,14.40
2019-03-23T15:54:56.474Z,14.30
2019-03-23T15:57:26.962Z,13.80
2019-03-23T15:59:57.788Z,13.70
2019-03-23T16:02:28.296Z,13.50
2019-03-23T16:04:59.260Z,13.40
2019-03-23T16:07:30.163Z,13.40
2019-03-23T16:10:00.581Z,13.40
2019-03-23T16:12:34.959Z,13.60
2019-03-23T16:15:03.212Z,13.60
2019-03-23T16:17:33.661Z,13.60
2019-03-23T16:20:04.430Z,13.60
2019-03-23T16:22:34.975Z,13.60
2019-03-23T16:25:05.939Z,13.60
2019-03-23T16:27:36.402Z,13.70
2019-03-23T16:30:07.643Z,13.60
2019-03-23T16:32:38.633Z,13.40
2019-03-23T16:35:10.244Z,13.40
2019-03-23T16:37:40.806Z,13.40
2019-03-23T16:40:11.285Z,13.50
2019-03-23T16:42:45.431Z,13.40
2019-03-23T16:45:13.845Z,13.30
2019-03-23T16:47:44.293Z,13.30
2019-03-23T16:50:14.753Z,13.20
2019-03-23T16:52:45.189Z,13.30
2019-03-23T16:55:15.651Z,13.30
2019-03-23T16:57:46.115Z,13.20
2019-03-23T17:00:18.255Z,13.10
2019-03-23T17:02:48.703Z,13.00
2019-03-23T17:05:19.162Z,12.80
2019-03-23T17:07:49.595Z,12.70
2019-03-23T17:10:20.139Z,12.80
2019-03-23T17:12:55.554Z,12.80
2019-03-23T17:15:23.868Z,12.70
2019-03-23T17:17:54.371Z,12.70
2019-03-23T17:20:24.949Z,12.60
2019-03-23T17:22:55.386Z,12.50
2019-03-23T17:25:25.864Z,12.50
2019-03-23T17:27:56.305Z,12.50
2019-03-23T17:30:26.830Z,12.40
2019-03-23T17:32:57.350Z,12.40
2019-03-23T17:35:27.838Z,12.30
2019-03-23T17:37:58.295Z,12.30
2019-03-23T17:40:28.754Z,12.30
2019-03-23T17:43:05.869Z,12.30
2019-03-23T17:45:31.442Z,12.30
2019-03-23T17:48:01.898Z,12.40
2019-03-23T17:50:32.359Z,12.30
2019-03-23T17:53:02.846Z,12.30
2019-03-23T17:55:33.451Z,12.20
2019-03-23T17:58:03.934Z,12.20
2019-03-23T18:00:34.388Z,12.20
2019-03-23T18:03:04.926Z,12.20
2019-03-23T18:05:35.390Z,12.30
2019-03-23T18:08:05.858Z,12.30
2019-03-23T18:10:36.470Z,12.30
2019-03-23T18:13:16.169Z,12.30
2019-03-23T18:15:39.116Z,12.30
2019-03-23T18:18:09.558Z,12.50
2019-03-23T18:20:40.094Z,12.30
2019-03-23T18:23:10.527Z,12.30
2019-03-23T18:25:41.029Z,12.40
2019-03-23T18:28:11.483Z,12.40
2019-03-23T18:30:42.574Z,12.40
2019-03-23T18:33:13.041Z,12.40
2019-03-23T18:35:43.566Z,12.30
2019-03-23T18:38:14.091Z,12.40
2019-03-23T18:40:44.624Z,12.40
2019-03-23T18:43:15.068Z,12.40
2019-03-23T18:45:45.741Z,12.70
2019-03-23T18:48:16.188Z,12.50
2019-03-23T18:50:46.622Z,12.50
2019-03-23T18:53:17.128Z,12.50
2019-03-23T18:55:47.603Z,12.40
2019-03-23T18:58:18.093Z,12.40
2019-03-23T19:00:48.610Z,12.30
2019-03-23T19:03:19.057Z,12.20
2019-03-23T19:05:49.516Z,12.20
2019-03-23T19:08:19.984Z,12.10
2019-03-23T19:10:50.462Z,11.90
2019-03-23T19:13:20.979Z,11.70
2019-03-23T19:15:51.419Z,11.20
2019-03-23T19:18:21.880Z,11.20
2019-03-23T19:20:52.322Z,11.40
2019-03-23T19:23:22.806Z,11.70
2019-03-23T19:25:53.250Z,11.80
2019-03-23T19:28:23.726Z,11.90
2019-03-23T19:30:54.196Z,11.90
2019-03-23T19:33:24.733Z,11.80
2019-03-23T19:35:55.194Z,11.90
2019-03-23T19:38:25.660Z,11.90
2019-03-23T19:40:56.134Z,11.90
2019-03-23T19:43:26.682Z,11.80
2019-03-23T19:45:57.118Z,11.80
2019-03-23T19:48:27.666Z,11.50
2019-03-23T19:50:58.130Z,11.40
2019-03-23T19:53:28.585Z,11.80
2019-03-23T19:55:59.121Z,11.90
2019-03-23T19:58:29.773Z,11.70
2019-03-23T20:01:00.586Z,11.60
2019-03-23T20:03:31.110Z,11.50
2019-03-23T20:06:03.481Z,11.60
2019-03-23T20:08:34.027Z,11.60
2019-03-23T20:11:04.967Z,11.40
2019-03-23T20:13:35.438Z,11.60
2019-03-23T20:16:05.964Z,11.40
2019-03-23T20:18:36.446Z,11.50
2019-03-23T20:21:06.877Z,11.60
2019-03-23T20:23:37.421Z,11.60
2019-03-23T20:26:07.895Z,11.50
2019-03-23T20:28:38.434Z,11.40
2019-03-23T20:31:08.923Z,11.40
2019-03-23T20:33:39.792Z,11.40
2019-03-23T20:36:10.233Z,11.40
2019-03-23T20:38:40.774Z,11.50
2019-03-23T20:41:11.313Z,11.60
2019-03-23T20:43:41.763Z,11.60
2019-03-23T20:46:13.189Z,11.40
2019-03-23T20:48:43.783Z,11.40
2019-03-23T20:51:14.226Z,11.40
2019-03-23T20:53:44.691Z,11.40
2019-03-23T20:56:15.135Z,11.20
2019-03-23T20:58:45.611Z,11.40
2019-03-23T21:01:16.173Z,11.50
2019-03-23T21:03:46.656Z,11.40
2019-03-23T21:06:17.096Z,11.50
2019-03-23T21:08:47.556Z,11.50
2019-03-23T21:11:17.993Z,11.50
2019-03-23T21:13:49.386Z,11.50
2019-03-23T21:16:19.862Z,11.40
2019-03-23T21:18:52.014Z,11.30
2019-03-23T21:21:22.457Z,11.20
2019-03-23T21:23:52.926Z,11.40
2019-03-23T21:26:23.397Z,11.40
2019-03-23T21:28:53.867Z,11.30
2019-03-23T21:31:24.324Z,11.40
2019-03-23T21:33:56.930Z,11.50
2019-03-23T21:36:27.366Z,11.30
2019-03-23T21:38:57.830Z,11.10
2019-03-23T21:41:28.270Z,10.90
2019-03-23T21:43:58.758Z,10.90
2019-03-23T21:46:29.183Z,11.00
2019-03-23T21:48:59.632Z,11.00
2019-03-23T21:51:30.082Z,11.10
2019-03-23T21:54:00.550Z,11.20
2019-03-23T21:56:30.991Z,11.30
2019-03-23T21:59:01.483Z,11.40
2019-03-23T22:01:31.946Z,11.40
2019-03-23T22:04:02.464Z,11.40
2019-03-23T22:06:32.964Z,11.40
2019-03-23T22:09:04.804Z,11.30
2019-03-23T22:11:35.307Z,11.20
2019-03-23T22:14:05.920Z,11.00
2019-03-23T22:16:36.306Z,10.90
2019-03-23T22:19:06.778Z,11.00
2019-03-23T22:21:37.300Z,11.10
2019-03-23T22:24:07.853Z,11.20
2019-03-23T22:26:38.353Z,11.00
2019-03-23T22:29:08.830Z,10.90
2019-03-23T22:31:39.281Z,10.90
2019-03-23T22:34:09.789Z,10.90
2019-03-23T22:36:40.294Z,11.00
2019-03-23T22:39:10.782Z,11.10
2019-03-23T22:41:41.254Z,11.10
2019-03-23T22:44:11.726Z,11.00
2019-03-23T22:46:42.221Z,11.00
2019-03-23T22:49:12.719Z,11.00
2019-03-23T22:51:43.168Z,11.00
2019-03-23T22:54:13.726Z,10.90
2019-03-23T22:56:44.258Z,10.40
2019-03-23T22:59:15.503Z,10.40
2019-03-23T23:01:46.055Z,10.50
2019-03-23T23:04:16.531Z,10.70
2019-03-23T23:06:46.986Z,10.80
2019-03-23T23:09:17.525Z,10.90
2019-03-23T23:11:47.969Z,10.70
2019-03-23T23:14:18.423Z,10.50
2019-03-23T23:16:48.875Z,10.40
2019-03-23T23:19:19.349Z,10.30
2019-03-23T23:21:49.890Z,10.20
2019-03-23T23:24:20.349Z,9.80
2019-03-23T23:26:50.958Z,9.70
2019-03-23T23:29:21.445Z,9.50
2019-03-23T23:31:51.883Z,9.50
2019-03-23T23:34:22.428Z,9.30
2019-03-23T23:36:52.854Z,9.30
2019-03-23T23:39:23.414Z,9.00
2019-03-23T23:41:53.934Z,9.00
2019-03-23T23:44:24.437Z,8.90
2019-03-23T23:46:54.882Z,8.90
2019-03-23T23:49:25.334Z,8.80
2019-03-23T23:51:55.784Z,9.00
2019-03-23T23:54:26.258Z,9.10
2019-03-23T23:56:56.787Z,9.10
2019-03-23T23:59:27.898Z,8.70
